createdAt,value
2019-02-28T00:00:24.200Z,10.60
2019-02-28T00:02:53.927Z,10.60
2019-02-28T00:05:22.916Z,10.70
2019-02-28T00:07:51.396Z,10.80
2019-02-28T00:10:19.911Z,10.90
2019-02-28T00:12:48.738Z,10.80
2019-02-28T00:15:17.291Z,10.70
2019-02-28T00:17:45.803Z,10.80
2019-02-28T00:20:14.289Z,10.80
2019-02-28T00:22:42.786Z,10.90
2019-02-28T00:25:11.261Z,10.70
2019-02-28T00:27:39.771Z,10.60
2019-02-28T00:30:11.562Z,10.50
2019-02-28T00:32:40.134Z,10.60
2019-02-28T00:35:12.994Z,10.60
2019-02-28T00:37:39.227Z,10.60
2019-02-28T00:40:09.240Z,10.60
2019-02-28T00:42:37.848Z,10.40
2019-02-28T00:45:09.566Z,10.40
2019-02-28T00:47:38.276Z,10.40
2019-02-28T00:50:07.304Z,10.50
2019-02-28T00:52:36.121Z,10.40
2019-02-28T00:55:07.154Z,10.50
2019-02-28T00:57:35.647Z,10.30
2019-02-28T01:00:06.269Z,10.30
2019-02-28T01:02:34.928Z,10.10
2019-02-28T01:05:05.039Z,10.10
2019-02-28T01:07:34.061Z,10.10
2019-02-28T01:10:04.560Z,10.10
2019-02-28T01:12:32.687Z,10.00
2019-02-28T01:15:01.414Z,10.00
2019-02-28T01:17:29.876Z,10.10
2019-02-28T01:19:58.392Z,10.20
2019-02-28T01:22:28.013Z,10.30
2019-02-28T01:24:56.669Z,10.30
2019-02-28T01:27:25.158Z,10.30
2019-02-28T01:29:53.650Z,10.20
2019-02-28T01:32:22.141Z,10.00
2019-02-28T01:34:50.718Z,10.00
2019-02-28T01:37:20.936Z,9.90
2019-02-28T01:39:49.423Z,9.80
2019-02-28T01:42:19.946Z,9.70
2019-02-28T01:44:48.106Z,9.60
2019-02-28T01:47:19.912Z,9.40
2019-02-28T01:49:46.697Z,9.50
2019-02-28T01:52:15.171Z,9.40
2019-02-28T01:54:43.665Z,9.30
2019-02-28T01:57:12.177Z,9.20
2019-02-28T01:59:40.706Z,9.20
2019-02-28T02:02:09.178Z,9.30
2019-02-28T02:04:37.745Z,9.30
2019-02-28T02:07:06.226Z,9.30
2019-02-28T02:09:34.728Z,9.30
2019-02-28T02:12:04.843Z,9.30
2019-02-28T02:14:33.400Z,9.30
2019-02-28T02:17:02.013Z,9.30
2019-02-28T02:19:30.559Z,9.20
2019-02-28T02:21:59.041Z,9.30
2019-02-28T02:24:27.981Z,9.40
2019-02-28T02:26:57.436Z,9.40
2019-02-28T02:29:25.958Z,9.40
2019-02-28T02:31:54.455Z,9.40
2019-02-28T02:34:24.352Z,9.30
2019-02-28T02:36:54.485Z,9.30
2019-02-28T02:39:23.060Z,9.20
2019-02-28T02:41:51.548Z,9.30
2019-02-28T02:44:20.055Z,9.20
2019-02-28T02:46:55.572Z,9.10
2019-02-28T02:49:20.026Z,9.10
2019-02-28T02:51:50.498Z,9.20
2019-02-28T02:54:20.222Z,9.20
2019-02-28T02:56:48.898Z,9.10
2019-02-28T02:59:17.401Z,9.00
2019-02-28T03:01:45.878Z,8.80
2019-02-28T03:04:21.736Z,8.90
2019-02-28T03:06:45.885Z,8.80
2019-02-28T03:09:14.703Z,8.70
2019-02-28T03:11:43.187Z,8.60
2019-02-28T03:14:16.510Z,8.40
2019-02-28T03:16:41.835Z,8.40
2019-02-28T03:19:10.316Z,8.40
2019-02-28T03:21:38.797Z,8.40
2019-02-28T03:24:07.285Z,8.40
2019-02-28T03:26:41.545Z,8.40
2019-02-28T03:29:07.870Z,8.40
2019-02-28T03:31:36.145Z,8.30
2019-02-28T03:34:13.043Z,8.40
2019-02-28T03:36:34.764Z,8.30
2019-02-28T03:39:04.715Z,8.20
2019-02-28T03:41:33.215Z,8.20
2019-02-28T03:44:01.811Z,8.10
2019-02-28T03:46:30.303Z,8.00
2019-02-28T03:48:58.801Z,8.00
2019-02-28T03:51:28.752Z,8.00
2019-02-28T03:53:57.403Z,7.90
2019-02-28T03:56:25.879Z,7.90
2019-02-28T03:58:54.372Z,7.90
2019-02-28T04:01:22.997Z,7.80
2019-02-28T04:03:51.483Z,7.90
2019-02-28T04:06:20.018Z,7.90
2019-02-28T04:08:48.494Z,7.90
2019-02-28T04:11:16.991Z,7.90
2019-02-28T04:13:45.523Z,8.00
2019-02-28T04:16:14.020Z,8.10
2019-02-28T04:18:46.070Z,8.10
2019-02-28T04:21:12.627Z,8.00
2019-02-28T04:23:41.175Z,8.10
2019-02-28T04:26:09.646Z,8.10
2019-02-28T04:28:38.116Z,8.10
2019-02-28T04:31:06.624Z,8.10
2019-02-28T04:33:39.088Z,8.00
2019-02-28T04:36:05.381Z,8.00
2019-02-28T04:38:33.857Z,7.90
2019-02-28T04:41:02.476Z,7.80
2019-02-28T04:43:31.226Z,7.80
2019-02-28T04:45:59.711Z,7.70
2019-02-28T04:48:28.221Z,7.70
2019-02-28T04:50:56.717Z,7.70
2019-02-28T04:53:25.224Z,7.70
2019-02-28T04:55:53.735Z,7.70
2019-02-28T04:58:24.918Z,7.70
2019-02-28T05:00:52.399Z,7.80
2019-02-28T05:03:20.906Z,7.80
2019-02-28T05:05:49.388Z,7.80
2019-02-28T05:08:17.941Z,7.90
2019-02-28T05:10:46.490Z,7.90
2019-02-28T05:13:16.799Z,8.00
2019-02-28T05:15:45.272Z,8.00
2019-02-28T05:18:13.839Z,8.10
2019-02-28T05:20:45.888Z,8.20
2019-02-28T05:23:12.467Z,8.20
2019-02-28T05:25:40.958Z,8.20
2019-02-28T05:28:09.504Z,8.20
2019-02-28T05:30:37.980Z,8.20
2019-02-28T05:33:07.376Z,8.10
2019-02-28T05:35:35.963Z,8.10
2019-02-28T05:38:04.501Z,8.10
2019-02-28T05:40:32.978Z,8.00
2019-02-28T05:43:01.490Z,8.00
2019-02-28T05:45:29.973Z,8.10
2019-02-28T05:47:58.460Z,8.10
2019-02-28T05:50:26.954Z,8.10
2019-02-28T05:52:55.447Z,8.10
2019-02-28T05:55:25.531Z,8.10
2019-02-28T05:57:54.317Z,8.20
2019-02-28T06:00:24.586Z,8.20
2019-02-28T06:02:57.656Z,8.20
2019-02-28T06:05:23.229Z,8.30
2019-02-28T06:07:51.719Z,8.30
2019-02-28T06:10:23.352Z,8.20
2019-02-28T06:12:50.349Z,8.20
2019-02-28T06:15:18.838Z,8.30
2019-02-28T06:17:47.325Z,8.20
2019-02-28T06:20:16.945Z,8.20
2019-02-28T06:22:45.959Z,8.30
2019-02-28T06:25:22.163Z,8.30
2019-02-28T06:27:48.909Z,8.30
2019-02-28T06:30:16.102Z,8.30
2019-02-28T06:32:44.586Z,8.40
2019-02-28T06:35:16.074Z,8.50
2019-02-28T06:37:43.224Z,8.60
2019-02-28T06:40:13.773Z,8.60
2019-02-28T06:42:43.529Z,8.60
2019-02-28T06:45:17.473Z,8.70
2019-02-28T06:47:49.578Z,8.70
2019-02-28T06:50:16.439Z,8.70
2019-02-28T06:52:44.936Z,8.80
2019-02-28T06:55:28.799Z,8.70
2019-02-28T06:57:58.782Z,8.60
2019-02-28T07:00:27.484Z,8.60
2019-02-28T07:02:56.245Z,8.70
2019-02-28T07:05:25.949Z,8.80
2019-02-28T07:07:54.625Z,8.80
2019-02-28T07:10:23.107Z,8.90
2019-02-28T07:12:51.609Z,8.90
2019-02-28T07:15:23.762Z,8.90
2019-02-28T07:17:50.280Z,8.90
2019-02-28T07:20:19.700Z,8.90
2019-02-28T07:22:48.214Z,8.90
2019-02-28T07:25:16.690Z,8.80
2019-02-28T07:27:45.262Z,8.80
2019-02-28T07:30:19.442Z,8.90
2019-02-28T07:32:48.153Z,9.00
2019-02-28T07:35:16.698Z,9.20
2019-02-28T07:37:45.509Z,9.40
2019-02-28T07:40:17.881Z,9.50
2019-02-28T07:42:46.867Z,9.70
2019-02-28T07:45:17.197Z,9.70
2019-02-28T07:47:51.783Z,9.90
2019-02-28T07:50:16.439Z,10.00
2019-02-28T07:52:44.943Z,10.10
2019-02-28T07:55:18.847Z,10.10
2019-02-28T07:57:51.126Z,10.40
2019-02-28T08:00:24.374Z,10.50
2019-02-28T08:02:52.870Z,10.50
2019-02-28T08:05:21.543Z,10.60
2019-02-28T08:07:52.657Z,10.70
2019-02-28T08:10:31.674Z,10.80
2019-02-28T08:13:03.118Z,11.10
2019-02-28T08:15:30.713Z,11.30
2019-02-28T08:17:59.209Z,11.50
2019-02-28T08:20:30.705Z,11.60
2019-02-28T08:22:57.838Z,11.60
2019-02-28T08:25:26.331Z,11.70
2019-02-28T08:27:59.076Z,11.80
2019-02-28T08:30:34.734Z,11.80
2019-02-28T08:33:03.234Z,11.90
2019-02-28T08:35:34.927Z,11.80
2019-02-28T08:38:01.855Z,11.90
2019-02-28T08:40:30.336Z,11.90
2019-02-28T08:42:58.823Z,12.00
2019-02-28T08:45:32.728Z,12.10
2019-02-28T08:47:57.519Z,12.30
2019-02-28T08:50:26.658Z,12.30
2019-02-28T08:52:58.417Z,12.30
2019-02-28T08:55:29.041Z,12.50
2019-02-28T08:58:04.054Z,12.50
2019-02-28T09:00:31.221Z,12.70
2019-02-28T09:02:57.338Z,13.00
2019-02-28T09:05:28.989Z,13.20
2019-02-28T09:07:56.023Z,13.80
2019-02-28T09:10:25.489Z,14.20
2019-02-28T09:12:53.981Z,14.50
2019-02-28T09:15:22.552Z,15.00
2019-02-28T09:17:51.567Z,15.30
2019-02-28T09:20:20.048Z,15.50
2019-02-28T09:22:49.860Z,15.90
2019-02-28T09:25:23.080Z,16.30
2019-02-28T09:27:51.787Z,16.40
2019-02-28T09:30:32.160Z,16.70
2019-02-28T09:33:00.661Z,17.00
2019-02-28T09:35:29.163Z,17.00
2019-02-28T09:37:57.646Z,17.10
2019-02-28T09:40:29.507Z,17.40
2019-02-28T09:42:56.311Z,17.60
2019-02-28T09:45:26.759Z,17.70
2019-02-28T09:48:00.813Z,17.90
2019-02-28T09:50:25.536Z,17.80
2019-02-28T09:52:54.019Z,17.70
2019-02-28T09:55:22.518Z,18.00
2019-02-28T09:57:54.729Z,17.70
2019-02-28T10:00:22.357Z,17.90
2019-02-28T10:02:52.967Z,17.90
2019-02-28T10:05:21.056Z,17.70
2019-02-28T10:07:49.536Z,17.60
2019-02-28T10:10:22.056Z,17.90
2019-02-28T10:12:50.708Z,18.20
2019-02-28T10:15:20.660Z,18.70
2019-02-28T10:17:49.153Z,18.70
2019-02-28T10:20:40.423Z,18.70
2019-02-28T10:23:08.907Z,18.70
2019-02-28T10:25:43.299Z,18.80
2019-02-28T10:28:07.539Z,18.80
2019-02-28T10:30:36.041Z,18.90
2019-02-28T10:33:04.592Z,18.90
2019-02-28T10:35:33.544Z,19.40
2019-02-28T10:38:03.246Z,19.20
2019-02-28T10:40:31.790Z,19.40
2019-02-28T10:43:00.311Z,19.50
2019-02-28T10:45:28.961Z,19.50
2019-02-28T10:48:02.951Z,20.00
2019-02-28T10:50:35.388Z,20.40
2019-02-28T10:53:05.756Z,21.10
2019-02-28T10:55:34.696Z,20.60
2019-02-28T10:58:03.363Z,20.60
2019-02-28T11:00:43.155Z,20.90
2019-02-28T11:03:11.815Z,20.80
2019-02-28T11:05:42.557Z,21.00
2019-02-28T11:08:19.158Z,20.70
2019-02-28T11:10:47.451Z,20.60
2019-02-28T11:13:20.198Z,21.10
2019-02-28T11:15:49.379Z,21.10
2019-02-28T11:18:17.959Z,21.00
2019-02-28T11:20:46.552Z,21.00
2019-02-28T11:23:15.911Z,21.20
2019-02-28T11:25:44.489Z,21.50
2019-02-28T11:28:13.574Z,21.50
2019-02-28T11:30:44.728Z,22.10
2019-02-28T11:33:12.465Z,22.70
2019-02-28T11:35:40.943Z,22.20
2019-02-28T11:38:09.468Z,21.90
2019-02-28T11:40:40.503Z,21.50
2019-02-28T11:43:08.076Z,21.80
2019-02-28T11:45:37.980Z,22.00
2019-02-28T11:48:08.395Z,22.30
2019-02-28T11:50:41.333Z,21.80
2019-02-28T11:53:07.282Z,21.40
2019-02-28T11:55:35.786Z,21.20
2019-02-28T11:58:04.283Z,21.30
2019-02-28T12:00:36.942Z,21.40
2019-02-28T12:03:05.824Z,21.20
2019-02-28T12:05:34.494Z,21.40
2019-02-28T12:08:02.982Z,21.50
2019-02-28T12:10:31.470Z,21.80
2019-02-28T12:12:59.983Z,21.60
2019-02-28T12:15:31.019Z,21.50
2019-02-28T12:18:03.654Z,21.90
2019-02-28T12:20:29.678Z,21.70
2019-02-28T12:22:58.201Z,21.80
2019-02-28T12:25:26.806Z,21.70
2019-02-28T12:27:55.343Z,21.90
2019-02-28T12:30:29.106Z,21.90
2019-02-28T12:32:57.614Z,21.70
2019-02-28T12:35:26.127Z,21.80
2019-02-28T12:37:55.035Z,21.70
2019-02-28T12:40:29.682Z,21.50
2019-02-28T12:42:58.235Z,21.90
2019-02-28T12:45:29.521Z,22.00
2019-02-28T12:47:58.015Z,22.00
2019-02-28T12:50:29.440Z,22.20
2019-02-28T12:52:57.018Z,22.30
2019-02-28T12:55:25.728Z,22.50
2019-02-28T12:57:54.788Z,22.50
2019-02-28T13:00:27.420Z,22.20
2019-02-28T13:02:56.067Z,22.40
2019-02-28T13:05:24.755Z,22.70
2019-02-28T13:07:53.381Z,22.30
2019-02-28T13:10:26.845Z,21.90
2019-02-28T13:12:53.297Z,21.80
2019-02-28T13:15:23.030Z,21.60
2019-02-28T13:17:51.510Z,22.20
2019-02-28T13:20:22.712Z,22.80
2019-02-28T13:22:51.311Z,22.60
2019-02-28T13:25:23.502Z,22.50
2019-02-28T13:27:50.402Z,23.00
2019-02-28T13:30:20.849Z,23.20
2019-02-28T13:32:49.427Z,23.20
2019-02-28T13:35:23.739Z,23.10
2019-02-28T13:37:52.449Z,23.60
2019-02-28T13:40:22.251Z,23.70
2019-02-28T13:42:50.973Z,24.40
2019-02-28T13:45:23.116Z,24.50
2019-02-28T13:47:50.862Z,24.10
2019-02-28T13:50:25.723Z,23.80
2019-02-28T13:52:55.219Z,23.90
2019-02-28T13:55:23.742Z,24.00
2019-02-28T13:57:52.299Z,24.20
2019-02-28T14:00:22.836Z,24.10
2019-02-28T14:02:53.163Z,23.80
2019-02-28T14:05:21.853Z,24.40
2019-02-28T14:07:50.311Z,25.00
2019-02-28T14:10:19.438Z,25.40
2019-02-28T14:12:48.504Z,25.90
2019-02-28T14:15:19.741Z,25.00
2019-02-28T14:17:48.287Z,24.50
2019-02-28T14:20:16.773Z,23.50
2019-02-28T14:22:45.796Z,23.80
2019-02-28T14:25:15.190Z,23.50
2019-02-28T14:27:43.730Z,24.10
2019-02-28T14:30:14.389Z,24.60
2019-02-28T14:32:44.093Z,25.00
2019-02-28T14:35:16.289Z,25.40
2019-02-28T14:37:44.831Z,26.00
2019-02-28T14:40:14.661Z,25.60
2019-02-28T14:42:45.987Z,25.20
2019-02-28T14:45:28.868Z,25.30
2019-02-28T14:47:57.543Z,25.30
2019-02-28T14:50:26.062Z,25.20
2019-02-28T14:52:56.761Z,25.30
2019-02-28T14:55:29.233Z,25.60
2019-02-28T14:57:57.094Z,25.60
2019-02-28T15:00:30.513Z,25.30
2019-02-28T15:02:59.371Z,25.60
2019-02-28T15:05:31.105Z,25.90
2019-02-28T15:07:59.597Z,26.10
2019-02-28T15:10:29.616Z,25.60
2019-02-28T15:12:59.848Z,25.60
2019-02-28T15:15:28.587Z,25.50
2019-02-28T15:17:58.706Z,25.30
2019-02-28T15:20:31.781Z,24.90
2019-02-28T15:22:59.606Z,24.60
2019-02-28T15:25:29.693Z,24.60
2019-02-28T15:27:58.224Z,24.60
2019-02-28T15:30:34.981Z,24.60
2019-02-28T15:33:03.623Z,24.70
2019-02-28T15:35:32.080Z,24.20
2019-02-28T15:38:00.583Z,23.80
2019-02-28T15:40:35.031Z,23.10
2019-02-28T15:43:03.595Z,22.80
2019-02-28T15:45:32.074Z,22.70
2019-02-28T15:48:00.664Z,22.40
2019-02-28T15:50:29.186Z,22.10
2019-02-28T15:52:57.811Z,21.80
2019-02-28T15:55:26.298Z,22.20
2019-02-28T15:57:54.815Z,22.20
2019-02-28T16:00:28.522Z,22.20
2019-02-28T16:02:57.322Z,22.30
2019-02-28T16:05:25.814Z,22.00
2019-02-28T16:07:54.466Z,21.50
2019-02-28T16:10:31.853Z,20.90
2019-02-28T16:13:02.067Z,20.40
2019-02-28T16:15:30.580Z,20.00
2019-02-28T16:17:59.072Z,19.70
2019-02-28T16:20:28.642Z,19.40
2019-02-28T16:22:57.767Z,19.30
2019-02-28T16:25:38.335Z,19.10
2019-02-28T16:28:08.764Z,19.00
2019-02-28T16:30:38.358Z,18.90
2019-02-28T16:33:06.835Z,18.70
2019-02-28T16:35:35.346Z,18.50
2019-02-28T16:38:06.452Z,18.40
2019-02-28T16:40:33.973Z,18.40
2019-02-28T16:43:02.458Z,18.40
2019-02-28T16:45:32.669Z,18.30
2019-02-28T16:48:03.024Z,18.00
2019-02-28T16:50:31.692Z,17.80
2019-02-28T16:53:00.252Z,17.50
2019-02-28T16:55:31.029Z,17.40
2019-02-28T16:57:58.890Z,17.40
2019-02-28T17:00:27.464Z,17.30
2019-02-28T17:02:55.969Z,17.30
2019-02-28T17:05:28.115Z,17.20
2019-02-28T17:07:54.705Z,17.20
2019-02-28T17:10:36.556Z,17.10
2019-02-28T17:13:12.837Z,17.10
2019-02-28T17:15:48.933Z,16.90
2019-02-28T17:18:22.553Z,16.80
2019-02-28T17:20:51.163Z,16.80
2019-02-28T17:23:19.671Z,16.60
2019-02-28T17:25:48.175Z,16.40
2019-02-28T17:28:18.312Z,16.30
2019-02-28T17:30:48.481Z,16.30
2019-02-28T17:33:17.048Z,16.30
2019-02-28T17:35:45.555Z,16.20
2019-02-28T17:38:14.068Z,16.00
2019-02-28T17:40:42.571Z,15.90
2019-02-28T17:43:11.079Z,15.80
2019-02-28T17:45:39.670Z,15.80
2019-02-28T17:48:26.295Z,15.80
2019-02-28T17:51:09.866Z,15.80
2019-02-28T17:53:42.036Z,15.80
2019-02-28T17:56:44.775Z,15.80
2019-02-28T17:59:28.475Z,15.70
2019-02-28T18:02:11.880Z,15.60
2019-02-28T18:04:52.228Z,15.60
2019-02-28T18:07:29.873Z,15.60
2019-02-28T18:10:13.449Z,15.60
2019-02-28T18:12:53.051Z,15.50
2019-02-28T18:15:24.621Z,15.50
2019-02-28T18:18:05.291Z,15.40
2019-02-28T18:20:41.633Z,15.30
2019-02-28T18:23:32.854Z,15.20
2019-02-28T18:26:25.785Z,15.10
2019-02-28T18:29:15.534Z,15.00
2019-02-28T18:31:44.067Z,15.00
2019-02-28T18:34:12.552Z,14.90
2019-02-28T18:36:44.212Z,14.80
2019-02-28T18:39:12.802Z,14.80
2019-02-28T18:41:42.245Z,14.80
2019-02-28T18:44:11.593Z,14.80
2019-02-28T18:46:40.077Z,14.80
2019-02-28T18:49:08.679Z,14.70
2019-02-28T18:51:37.187Z,14.60
2019-02-28T18:54:05.693Z,14.50
2019-02-28T18:56:34.247Z,14.40
2019-02-28T18:59:04.368Z,14.30
2019-02-28T19:01:32.898Z,14.20
2019-02-28T19:04:01.424Z,14.20
2019-02-28T19:06:29.913Z,14.10
2019-02-28T19:08:58.616Z,14.20
2019-02-28T19:11:27.349Z,14.20
2019-02-28T19:13:56.038Z,14.20
2019-02-28T19:16:24.597Z,14.20
2019-02-28T19:18:53.126Z,14.10
2019-02-28T19:21:21.705Z,14.10
2019-02-28T19:23:50.248Z,14.00
2019-02-28T19:26:18.774Z,13.90
2019-02-28T19:28:47.277Z,13.90
2019-02-28T19:31:15.759Z,14.00
2019-02-28T19:33:44.253Z,14.00
2019-02-28T19:36:12.806Z,13.90
2019-02-28T19:38:42.488Z,13.80
2019-02-28T19:41:11.034Z,13.70
2019-02-28T19:43:39.616Z,13.60
2019-02-28T19:46:08.256Z,13.60
2019-02-28T19:48:36.784Z,13.50
2019-02-28T19:51:05.378Z,13.40
2019-02-28T19:53:33.915Z,13.50
2019-02-28T19:56:02.415Z,13.40
2019-02-28T19:58:30.900Z,13.30
2019-02-28T20:00:59.493Z,13.30
2019-02-28T20:03:28.006Z,13.20
2019-02-28T20:05:56.567Z,13.30
2019-02-28T20:08:25.419Z,13.30
2019-02-28T20:10:53.919Z,13.40
2019-02-28T20:13:22.410Z,13.30
2019-02-28T20:15:50.980Z,13.20
2019-02-28T20:18:19.517Z,13.10
2019-02-28T20:20:47.997Z,13.10
2019-02-28T20:23:16.575Z,13.10
2019-02-28T20:25:45.086Z,13.10
2019-02-28T20:28:15.449Z,13.00
2019-02-28T20:30:43.919Z,12.90
2019-02-28T20:33:12.464Z,12.90
2019-02-28T20:35:40.993Z,12.80
2019-02-28T20:38:09.567Z,12.80
2019-02-28T20:40:38.556Z,12.70
2019-02-28T20:43:07.036Z,12.80
2019-02-28T20:45:35.658Z,12.90
2019-02-28T20:48:04.367Z,12.90
2019-02-28T20:50:41.933Z,12.80
2019-02-28T20:53:10.458Z,12.80
2019-02-28T20:55:39.154Z,12.70
2019-02-28T20:58:07.664Z,12.70
2019-02-28T21:00:36.140Z,12.70
2019-02-28T21:03:04.811Z,12.70
2019-02-28T21:05:33.292Z,12.60
2019-02-28T21:08:01.897Z,12.60
2019-02-28T21:10:30.478Z,12.70
2019-02-28T21:12:58.975Z,12.70
2019-02-28T21:15:27.474Z,12.60
2019-02-28T21:17:55.966Z,12.70
2019-02-28T21:20:24.468Z,12.60
2019-02-28T21:22:52.958Z,12.60
2019-02-28T21:25:21.468Z,12.50
2019-02-28T21:27:50.059Z,12.50
2019-02-28T21:30:21.168Z,12.50
2019-02-28T21:32:49.843Z,12.50
2019-02-28T21:35:18.356Z,12.50
2019-02-28T21:37:47.897Z,12.50
2019-02-28T21:40:18.965Z,12.50
2019-02-28T21:42:47.640Z,12.40
2019-02-28T21:45:21.174Z,12.40
2019-02-28T21:47:49.672Z,12.30
2019-02-28T21:50:18.250Z,12.30
2019-02-28T21:52:46.743Z,12.40
2019-02-28T21:55:18.412Z,12.30
2019-02-28T21:57:46.989Z,12.20
2019-02-28T22:00:24.206Z,12.00
2019-02-28T22:02:52.754Z,11.90
2019-02-28T22:05:21.232Z,11.70
2019-02-28T22:07:49.702Z,11.70
2019-02-28T22:10:18.204Z,11.80
2019-02-28T22:12:46.685Z,11.80
2019-02-28T22:15:22.163Z,11.80
2019-02-28T22:17:50.746Z,11.90
2019-02-28T22:20:19.306Z,11.80
2019-02-28T22:22:47.773Z,11.80
2019-02-28T22:25:16.728Z,11.60
2019-02-28T22:27:45.289Z,11.60
2019-02-28T22:30:39.666Z,11.50
2019-02-28T22:33:10.094Z,11.50
2019-02-28T22:35:40.272Z,11.40
2019-02-28T22:38:08.767Z,11.40
2019-02-28T22:40:37.331Z,11.40
2019-02-28T22:43:05.990Z,11.40
2019-02-28T22:45:34.533Z,11.40
2019-02-28T22:48:03.044Z,11.50
2019-02-28T22:50:31.602Z,11.50
2019-02-28T22:53:00.094Z,11.40
2019-02-28T22:55:28.674Z,11.30
2019-02-28T22:57:57.156Z,11.30
2019-02-28T23:00:30.583Z,11.30
2019-02-28T23:02:59.120Z,11.20
2019-02-28T23:05:27.946Z,11.20
2019-02-28T23:07:57.321Z,11.30
2019-02-28T23:10:26.036Z,11.20
2019-02-28T23:12:54.961Z,11.10
2019-02-28T23:15:23.611Z,11.00
2019-02-28T23:17:52.283Z,10.80
2019-02-28T23:20:20.968Z,10.60
2019-02-28T23:22:49.563Z,10.50
2019-02-28T23:25:18.106Z,10.30
2019-02-28T23:27:46.685Z,10.20
2019-02-28T23:30:21.496Z,10.20
2019-02-28T23:32:56.476Z,10.10
2019-02-28T23:35:28.609Z,10.10
2019-02-28T23:37:57.106Z,10.00
2019-02-28T23:40:25.612Z,10.10
2019-02-28T23:42:54.124Z,10.00
2019-02-28T23:45:22.617Z,9.90
2019-02-28T23:47:52.819Z,9.90
2019-02-28T23:50:21.488Z,10.00
2019-02-28T23:52:49.979Z,10.20
2019-02-28T23:55:18.469Z,10.30
2019-02-28T23:57:47.034Z,10.40
